Time;durP1;ratioP1;P1;durP2;ratioP2;P2;SDS_P1;SDS_P2;PMS_P1;PMS_P2;Temp;Humidity;BMP_temperature;BMP_pressure;BME280_temperature;BME280_humidity;BME280_pressure;Samples;Min_cycle;Max_cycle;Signal;HPM_P1;HPM_P2
2023/05/04 00:00:37;;;;;;;7.82;2.40;;;;;;;;;;6272042;22;20038;-78
2023/05/04 00:03:02;;;;;;;4.80;2.00;;;;;;;;;;6271555;22;20090;-77
2023/05/04 00:05:28;;;;;;;4.65;2.10;;;;;;;;;;6271676;22;20324;-78
2023/05/04 00:07:53;;;;;;;5.57;2.00;;;;;;;;;;6270460;22;20007;-78
2023/05/04 00:10:19;;;;;;;4.78;2.10;;;;;;;;;;6272027;22;20142;-78
2023/05/04 00:12:45;;;;;;;3.20;2.00;;;;;;;;;;6271609;22;20003;-78
2023/05/04 00:15:10;;;;;;;5.43;2.10;;;;;;;;;;6272132;22;20470;-78
2023/05/04 00:17:36;;;;;;;4.93;2.25;;;;;;;;;;6271628;22;20003;-78
2023/05/04 00:20:02;;;;;;;3.63;2.22;;;;;;;;;;6271343;22;20011;-78
2023/05/04 00:22:27;;;;;;;5.72;2.25;;;;;;;;;;6271026;22;20123;-77
2023/05/04 00:24:52;;;;;;;8.43;2.30;;;;;;;;;;6271513;22;20612;-77
2023/05/04 00:27:18;;;;;;;4.75;2.40;;;;;;;;;;6271882;22;20002;-77
2023/05/04 00:29:43;;;;;;;6.18;2.60;;;;;;;;;;6270592;22;20336;-77
2023/05/04 00:32:09;;;;;;;4.18;2.40;;;;;;;;;;6271073;22;20034;-78
2023/05/04 00:34:35;;;;;;;4.00;2.25;;;;;;;;;;6271491;22;20345;-78
2023/05/04 00:37:00;;;;;;;6.38;2.83;;;;;;;;;;6271155;22;20017;-79
2023/05/04 00:39:25;;;;;;;4.28;2.40;;;;;;;;;;6271088;22;20038;-78
2023/05/04 00:41:51;;;;;;;6.93;3.10;;;;;;;;;;6271695;22;20070;-77
2023/05/04 00:44:16;;;;;;;7.60;2.75;;;;;;;;;;6271178;22;20030;-77
2023/05/04 00:46:42;;;;;;;6.32;2.53;;;;;;;;;;6271611;22;20027;-77
2023/05/04 00:49:07;;;;;;;4.28;2.40;;;;;;;;;;6271535;22;20364;-77
2023/05/04 00:51:33;;;;;;;6.05;2.75;;;;;;;;;;6269102;22;20012;-77
2023/05/04 00:53:59;;;;;;;6.95;2.47;;;;;;;;;;6270721;22;20014;-77
2023/05/04 00:56:24;;;;;;;5.85;2.80;;;;;;;;;;6271171;22;20071;-77
2023/05/04 00:58:54;;;;;;;5.35;2.70;;;;;;;;;;6270944;22;20071;-77
2023/05/04 01:01:21;;;;;;;6.00;2.50;;;;;;;;;;6271456;22;20000;-77
2023/05/04 01:03:48;;;;;;;4.80;2.63;;;;;;;;;;6270892;22;20007;-78
2023/05/04 01:06:37;;;;;;;7.05;2.97;;;;;;;;;;6270992;22;20010;-77
2023/05/04 01:09:09;;;;;;;6.40;2.95;;;;;;;;;;6271210;22;20004;-76
2023/05/04 01:11:48;;;;;;;7.80;2.90;;;;;;;;;;6271346;22;20444;-76
2023/05/04 01:14:15;;;;;;;6.20;2.63;;;;;;;;;;6270606;22;20004;-77
2023/05/04 01:16:40;;;;;;;6.85;2.83;;;;;;;;;;6271288;22;20505;-76
2023/05/04 01:19:06;;;;;;;7.53;2.88;;;;;;;;;;6270937;22;20008;-78
2023/05/04 01:21:31;;;;;;;4.82;2.90;;;;;;;;;;6243512;22;20090;-77
2023/05/04 01:23:57;;;;;;;6.75;2.88;;;;;;;;;;6270837;22;20049;-77
2023/05/04 01:26:33;;;;;;;7.95;2.83;;;;;;;;;;6270764;22;20471;-77
2023/05/04 01:29:23;;;;;;;4.60;2.80;;;;;;;;;;6270983;22;20087;-77
2023/05/04 01:31:50;;;;;;;6.15;2.72;;;;;;;;;;6243825;22;20620;-78
2023/05/04 01:34:16;;;;;;;6.85;2.97;;;;;;;;;;6270680;22;19999;-77
2023/05/04 01:36:43;;;;;;;7.95;2.80;;;;;;;;;;6270329;22;20053;-77
2023/05/04 01:39:08;;;;;;;5.93;2.95;;;;;;;;;;6243605;22;20011;-77
2023/05/04 01:41:35;;;;;;;9.20;2.75;;;;;;;;;;6271155;22;20010;-77
2023/05/04 01:44:01;;;;;;;4.75;2.58;;;;;;;;;;6270742;22;20455;-77
2023/05/04 01:46:27;;;;;;;9.75;3.15;;;;;;;;;;6243967;22;20639;-77
2023/05/04 01:48:52;;;;;;;5.07;2.80;;;;;;;;;;6270803;22;20003;-77
2023/05/04 01:51:18;;;;;;;5.85;2.80;;;;;;;;;;6243140;22;20011;-77
2023/05/04 01:53:44;;;;;;;6.35;2.85;;;;;;;;;;6271404;22;20025;-77
2023/05/04 01:56:09;;;;;;;7.18;2.90;;;;;;;;;;6270750;22;20404;-77
2023/05/04 01:58:35;;;;;;;5.03;3.00;;;;;;;;;;6270977;22;20418;-77
2023/05/04 02:01:00;;;;;;;6.38;2.95;;;;;;;;;;6243301;22;20012;-77
2023/05/04 02:03:26;;;;;;;7.47;2.97;;;;;;;;;;6270512;22;20000;-77
2023/05/04 02:05:51;;;;;;;6.28;3.30;;;;;;;;;;6270072;22;20064;-77
2023/05/04 02:08:17;;;;;;;6.95;3.00;;;;;;;;;;6270643;22;20000;-77
2023/05/04 02:10:42;;;;;;;8.57;3.35;;;;;;;;;;6243308;22;20007;-77
2023/05/04 02:13:08;;;;;;;7.40;3.28;;;;;;;;;;6270713;22;20030;-77
2023/05/04 02:15:33;;;;;;;9.30;3.35;;;;;;;;;;6270574;22;20026;-78
2023/05/04 02:17:58;;;;;;;8.88;3.42;;;;;;;;;;6270968;22;20007;-77
2023/05/04 02:20:24;;;;;;;5.72;3.30;;;;;;;;;;6270259;22;20400;-77
2023/05/04 02:22:49;;;;;;;7.18;3.38;;;;;;;;;;6270135;22;20000;-77
2023/05/04 02:25:15;;;;;;;6.38;3.40;;;;;;;;;;6270126;22;19996;-77
2023/05/04 02:27:41;;;;;;;7.38;3.38;;;;;;;;;;6270690;22;20100;-77
2023/05/04 02:30:08;;;;;;;6.53;3.25;;;;;;;;;;6270501;22;20038;-77
2023/05/04 02:32:33;;;;;;;6.47;3.70;;;;;;;;;;6270639;22;20007;-77
2023/05/04 02:34:58;;;;;;;8.35;3.63;;;;;;;;;;6270106;22;20008;-77
2023/05/04 02:37:24;;;;;;;6.60;3.50;;;;;;;;;;6270001;22;20104;-77
2023/05/04 02:39:49;;;;;;;6.22;3.22;;;;;;;;;;6270328;22;20093;-77
2023/05/04 02:42:16;;;;;;;8.77;3.70;;;;;;;;;;6270592;22;20000;-78
2023/05/04 02:44:41;;;;;;;8.43;3.53;;;;;;;;;;6242821;22;20008;-77
2023/05/04 02:47:07;;;;;;;6.90;3.45;;;;;;;;;;6270609;22;20004;-77
2023/05/04 02:49:32;;;;;;;5.35;3.35;;;;;;;;;;6270289;22;20038;-77
2023/05/04 02:51:57;;;;;;;9.07;3.70;;;;;;;;;;6269762;22;20053;-77
2023/05/04 02:54:26;;;;;;;8.68;3.47;;;;;;;;;;6271444;22;20004;-77
2023/05/04 02:56:51;;;;;;;7.85;3.60;;;;;;;;;;6273122;22;20010;-78
2023/05/04 02:59:16;;;;;;;7.30;3.63;;;;;;;;;;6272542;22;20087;-77
2023/05/04 03:01:42;;;;;;;6.15;3.30;;;;;;;;;;6272389;22;19999;-78
2023/05/04 03:04:07;;;;;;;9.80;3.60;;;;;;;;;;6271943;22;20002;-78
2023/05/04 03:06:33;;;;;;;7.18;3.35;;;;;;;;;;6271808;22;20637;-77
2023/05/04 03:08:58;;;;;;;5.97;3.25;;;;;;;;;;6245622;22;20004;-77
2023/05/04 03:11:24;;;;;;;7.05;3.60;;;;;;;;;;6272265;22;20004;-78
2023/05/04 03:13:49;;;;;;;8.43;3.63;;;;;;;;;;6272289;22;20031;-77
2023/05/04 03:16:16;;;;;;;7.30;3.47;;;;;;;;;;6272261;22;20094;-79
2023/05/04 03:18:41;;;;;;;8.82;3.53;;;;;;;;;;6272496;22;20492;-77
2023/05/04 03:21:06;;;;;;;9.30;3.47;;;;;;;;;;6271584;22;20081;-78
2023/05/04 03:23:32;;;;;;;7.50;3.47;;;;;;;;;;6272578;22;20004;-77
2023/05/04 03:25:57;;;;;;;7.32;3.30;;;;;;;;;;6272054;22;20000;-77
2023/05/04 03:28:23;;;;;;;10.52;3.67;;;;;;;;;;6272634;22;20627;-78
2023/05/04 03:30:48;;;;;;;9.13;3.60;;;;;;;;;;6272072;22;20052;-78
2023/05/04 03:33:14;;;;;;;5.63;3.47;;;;;;;;;;6272579;22;20004;-77
2023/05/04 03:35:39;;;;;;;7.97;3.50;;;;;;;;;;6271675;22;20007;-77
2023/05/04 03:38:08;;;;;;;7.57;3.53;;;;;;;;;;6244120;22;20008;-78
2023/05/04 03:40:34;;;;;;;9.32;3.60;;;;;;;;;;6271850;22;20431;-78
2023/05/04 03:42:59;;;;;;;8.43;3.80;;;;;;;;;;6272171;22;20454;-77
2023/05/04 03:45:27;;;;;;;5.78;3.70;;;;;;;;;;6244556;22;20003;-77
2023/05/04 03:47:54;;;;;;;6.93;3.20;;;;;;;;;;6272231;22;20570;-77
2023/05/04 03:50:20;;;;;;;6.82;3.58;;;;;;;;;;6272017;22;20033;-78
2023/05/04 03:52:45;;;;;;;7.85;3.75;;;;;;;;;;6271506;22;19999;-77
2023/05/04 03:55:11;;;;;;;6.32;3.75;;;;;;;;;;6271667;22;20321;-77
2023/05/04 03:57:36;;;;;;;9.68;4.10;;;;;;;;;;6272057;22;20023;-79
2023/05/04 04:00:04;;;;;;;11.82;4.05;;;;;;;;;;6272215;22;20020;-78
2023/05/04 04:02:29;;;;;;;7.38;4.07;;;;;;;;;;6271457;22;20008;-80
2023/05/04 04:04:55;;;;;;;8.90;4.10;;;;;;;;;;6271641;22;20022;-80
2023/05/04 04:07:20;;;;;;;9.70;4.13;;;;;;;;;;6270679;22;20002;-79
2023/05/04 04:09:46;;;;;;;11.73;4.70;;;;;;;;;;6271948;22;20156;-77
2023/05/04 04:12:11;;;;;;;7.25;4.25;;;;;;;;;;6244279;22;20111;-77
2023/05/04 04:14:37;;;;;;;9.55;4.30;;;;;;;;;;6271517;22;20011;-77
2023/05/04 04:17:02;;;;;;;13.30;4.68;;;;;;;;;;6271836;22;20035;-77
2023/05/04 04:19:28;;;;;;;9.05;3.88;;;;;;;;;;6271693;22;20030;-78
2023/05/04 04:21:53;;;;;;;11.00;4.15;;;;;;;;;;6271016;22;20038;-77
2023/05/04 04:24:18;;;;;;;9.38;4.18;;;;;;;;;;6271604;22;20004;-77
2023/05/04 04:26:44;;;;;;;10.45;4.22;;;;;;;;;;6244039;22;20098;-77
2023/05/04 04:29:09;;;;;;;9.15;4.15;;;;;;;;;;6271480;22;20012;-77
2023/05/04 04:31:35;;;;;;;12.10;4.60;;;;;;;;;;6271399;22;20006;-77
2023/05/04 04:34:00;;;;;;;6.75;3.83;;;;;;;;;;6271712;22;20055;-77
2023/05/04 04:36:25;;;;;;;8.18;4.20;;;;;;;;;;6270718;22;20045;-77
2023/05/04 04:38:51;;;;;;;9.52;4.13;;;;;;;;;;6271574;22;20121;-78
2023/05/04 04:41:16;;;;;;;10.90;4.20;;;;;;;;;;6271550;22;20091;-77
2023/05/04 04:43:42;;;;;;;7.80;4.00;;;;;;;;;;6271709;22;20563;-77
2023/05/04 04:46:08;;;;;;;11.10;4.20;;;;;;;;;;6271015;22;20788;-77
2023/05/04 04:48:33;;;;;;;9.88;4.55;;;;;;;;;;6271517;22;20482;-77
2023/05/04 04:50:59;;;;;;;9.27;4.32;;;;;;;;;;6243604;22;20007;-78
2023/05/04 04:53:27;;;;;;;9.35;4.00;;;;;;;;;;6271461;22;20000;-78
2023/05/04 04:55:53;;;;;;;7.50;4.22;;;;;;;;;;6271482;22;20027;-77
2023/05/04 04:58:18;;;;;;;7.55;4.03;;;;;;;;;;6271632;22;20368;-77
2023/05/04 05:00:44;;;;;;;9.15;3.85;;;;;;;;;;6271171;22;20010;-77
2023/05/04 05:03:09;;;;;;;10.48;4.05;;;;;;;;;;6271412;22;20011;-78
2023/05/04 05:05:37;;;;;;;9.20;4.22;;;;;;;;;;6271074;22;20068;-77
2023/05/04 05:08:03;;;;;;;7.97;3.88;;;;;;;;;;6270504;22;20003;-77
2023/05/04 05:10:28;;;;;;;9.25;3.90;;;;;;;;;;6271493;22;19996;-78
2023/05/04 05:12:54;;;;;;;8.52;3.83;;;;;;;;;;6271103;22;20065;-77
2023/05/04 05:15:19;;;;;;;7.22;4.00;;;;;;;;;;6271289;22;20518;-78
2023/05/04 05:17:45;;;;;;;9.70;3.95;;;;;;;;;;6270894;22;20004;-78
2023/05/04 05:20:11;;;;;;;7.15;3.63;;;;;;;;;;6271121;22;20345;-78
2023/05/04 05:22:37;;;;;;;13.05;4.07;;;;;;;;;;6243212;22;20000;-78
2023/05/04 05:25:07;;;;;;;10.07;4.00;;;;;;;;;;6270771;22;20388;-77
2023/05/04 05:27:33;;;;;;;10.45;4.00;;;;;;;;;;6270962;22;20482;-78
2023/05/04 05:30:00;;;;;;;8.10;3.92;;;;;;;;;;6271267;22;20004;-77
2023/05/04 05:32:25;;;;;;;7.72;3.65;;;;;;;;;;6244514;22;20023;-77
2023/05/04 05:34:50;;;;;;;7.63;3.95;;;;;;;;;;6270986;22;20085;-78
2023/05/04 05:37:16;;;;;;;7.95;4.00;;;;;;;;;;6270116;22;20033;-78
2023/05/04 05:39:41;;;;;;;8.20;3.95;;;;;;;;;;6271127;22;20015;-78
2023/05/04 05:42:07;;;;;;;7.07;4.07;;;;;;;;;;6243251;22;20090;-78
2023/05/04 05:44:36;;;;;;;11.20;4.07;;;;;;;;;;6270968;22;20443;-77
2023/05/04 05:47:02;;;;;;;7.93;4.10;;;;;;;;;;6270592;22;20444;-77
2023/05/04 05:49:27;;;;;;;9.07;4.18;;;;;;;;;;6243694;22;20015;-78
2023/05/04 05:51:52;;;;;;;10.02;4.40;;;;;;;;;;6269956;22;20004;-77
2023/05/04 05:54:20;;;;;;;10.98;4.30;;;;;;;;;;6271271;22;20034;-77
2023/05/04 05:56:45;;;;;;;9.43;4.10;;;;;;;;;;6270226;22;20004;-78
2023/05/04 05:59:11;;;;;;;9.77;3.85;;;;;;;;;;6243749;22;20011;-77
2023/05/04 06:01:36;;;;;;;9.30;4.25;;;;;;;;;;6270856;22;20004;-77
2023/05/04 06:04:02;;;;;;;8.00;3.90;;;;;;;;;;6270878;22;20411;-77
2023/05/04 06:06:28;;;;;;;9.68;3.72;;;;;;;;;;6270021;22;20313;-77
2023/05/04 06:08:53;;;;;;;9.77;3.80;;;;;;;;;;6270650;22;20450;-76
2023/05/04 06:11:18;;;;;;;10.75;3.75;;;;;;;;;;6270960;22;20034;-78
2023/05/04 06:13:44;;;;;;;11.50;3.88;;;;;;;;;;6270110;22;20333;-78
2023/05/04 06:16:09;;;;;;;11.13;3.67;;;;;;;;;;6270355;22;20011;-77
2023/05/04 06:18:35;;;;;;;9.88;3.42;;;;;;;;;;6243379;22;20102;-77
2023/05/04 06:21:08;;;;;;;13.93;3.70;;;;;;;;;;6270306;22;20008;-77
2023/05/04 06:23:34;;;;;;;13.88;4.03;;;;;;;;;;6270562;22;20081;-77
2023/05/04 06:25:59;;;;;;;10.60;3.88;;;;;;;;;;6270474;22;19999;-77
2023/05/04 06:28:25;;;;;;;14.75;4.10;;;;;;;;;;6269940;22;20332;-77
2023/05/04 06:30:50;;;;;;;14.45;3.65;;;;;;;;;;6270667;22;20010;-77
2023/05/04 06:33:16;;;;;;;10.90;3.83;;;;;;;;;;6270478;22;20412;-76
2023/05/04 06:35:42;;;;;;;9.50;3.47;;;;;;;;;;6270588;22;20703;-77
2023/05/04 06:38:07;;;;;;;14.45;4.10;;;;;;;;;;6269940;22;20007;-77
2023/05/04 06:40:36;;;;;;;12.00;3.80;;;;;;;;;;6270731;22;20019;-78
2023/05/04 06:43:01;;;;;;;17.63;3.90;;;;;;;;;;6241713;22;20465;-77
2023/05/04 06:45:27;;;;;;;18.85;4.03;;;;;;;;;;6270470;22;20071;-77
2023/05/04 06:47:52;;;;;;;15.52;4.00;;;;;;;;;;6270306;22;20039;-77
2023/05/04 06:50:18;;;;;;;16.98;4.10;;;;;;;;;;6270683;22;20011;-79
2023/05/04 06:52:44;;;;;;;15.60;3.83;;;;;;;;;;6269536;22;20398;-79
2023/05/04 06:55:10;;;;;;;14.20;4.55;;;;;;;;;;6270609;22;20376;-78
2023/05/04 06:57:35;;;;;;;13.57;3.90;;;;;;;;;;6270080;22;20052;-78
2023/05/04 07:00:03;;;;;;;18.90;3.72;;;;;;;;;;6270774;22;20008;-78
2023/05/04 07:02:28;;;;;;;15.65;3.85;;;;;;;;;;6270597;22;20409;-78
2023/05/04 07:04:53;;;;;;;11.65;3.30;;;;;;;;;;6270626;22;20075;-78
2023/05/04 07:07:19;;;;;;;21.20;4.00;;;;;;;;;;6242438;22;20075;-78
2023/05/04 07:09:46;;;;;;;14.80;3.55;;;;;;;;;;6270195;22;20038;-78
2023/05/04 07:12:12;;;;;;;17.23;3.45;;;;;;;;;;6270169;22;20082;-79
2023/05/04 07:14:37;;;;;;;21.02;3.67;;;;;;;;;;6270296;22;20451;-79
2023/05/04 07:17:03;;;;;;;17.27;3.40;;;;;;;;;;6270279;22;20007;-78
2023/05/04 07:19:28;;;;;;;15.55;3.22;;;;;;;;;;6270211;22;20091;-78
2023/05/04 07:21:54;;;;;;;17.92;3.38;;;;;;;;;;6269997;22;20000;-79
2023/05/04 07:24:20;;;;;;;14.88;3.80;;;;;;;;;;6270362;22;20010;-79
2023/05/04 07:26:45;;;;;;;13.60;3.13;;;;;;;;;;6269704;22;20008;-77
2023/05/04 07:29:11;;;;;;;12.45;3.05;;;;;;;;;;6270088;22;20363;-78
2023/05/04 07:31:37;;;;;;;14.63;3.35;;;;;;;;;;6270460;22;20000;-79
2023/05/04 07:34:02;;;;;;;15.60;3.30;;;;;;;;;;6270345;22;20375;-79
2023/05/04 07:36:28;;;;;;;11.85;3.10;;;;;;;;;;6269768;22;20000;-77
2023/05/04 07:38:53;;;;;;;12.73;3.20;;;;;;;;;;6269862;22;20023;-77
2023/05/04 07:41:19;;;;;;;14.85;3.22;;;;;;;;;;6271749;22;20011;-77
2023/05/04 07:43:45;;;;;;;12.95;3.50;;;;;;;;;;6271713;22;20004;-77
2023/05/04 07:46:11;;;;;;;12.90;3.05;;;;;;;;;;6272104;22;20053;-77
2023/05/04 07:48:36;;;;;;;13.30;3.10;;;;;;;;;;6271776;22;20003;-78
2023/05/04 07:51:02;;;;;;;14.73;3.10;;;;;;;;;;6270772;22;20027;-77
2023/05/04 07:53:28;;;;;;;13.30;3.05;;;;;;;;;;6271763;22;20003;-77
2023/05/04 07:55:56;;;;;;;17.15;3.30;;;;;;;;;;6271844;22;20000;-77
2023/05/04 07:58:21;;;;;;;13.93;2.85;;;;;;;;;;6271604;22;20003;-77
2023/05/04 08:00:48;;;;;;;14.15;3.00;;;;;;;;;;6272037;22;20004;-77
2023/05/04 08:03:13;;;;;;;17.25;3.60;;;;;;;;;;6244295;22;20007;-77
2023/05/04 08:05:38;;;;;;;11.93;2.90;;;;;;;;;;6272046;22;20004;-78
2023/05/04 08:08:04;;;;;;;12.50;3.20;;;;;;;;;;6271020;22;20124;-76
2023/05/04 08:10:29;;;;;;;17.35;3.38;;;;;;;;;;6244578;22;20010;-77
2023/05/04 08:12:55;;;;;;;9.73;3.13;;;;;;;;;;6271862;22;20071;-78
2023/05/04 08:15:21;;;;;;;13.00;3.03;;;;;;;;;;6271340;22;20019;-77
2023/05/04 08:17:46;;;;;;;12.40;3.17;;;;;;;;;;6271658;22;20004;-77
2023/05/04 08:20:11;;;;;;;15.57;3.90;;;;;;;;;;6271511;22;20007;-77
2023/05/04 08:22:37;;;;;;;16.90;3.33;;;;;;;;;;6271234;22;20054;-77
2023/05/04 08:25:03;;;;;;;14.40;3.53;;;;;;;;;;6271744;22;20087;-77
2023/05/04 08:27:29;;;;;;;14.88;3.40;;;;;;;;;;6271797;22;20031;-77
2023/05/04 08:29:56;;;;;;;11.75;3.15;;;;;;;;;;6271490;22;20009;-77
2023/05/04 08:32:22;;;;;;;11.80;4.10;;;;;;;;;;6271943;22;20460;-76
2023/05/04 08:34:47;;;;;;;11.55;3.20;;;;;;;;;;6271516;22;20000;-77
2023/05/04 08:37:19;;;;;;;12.90;3.33;;;;;;;;;;6270751;22;20015;-77
2023/05/04 08:39:44;;;;;;;10.75;3.40;;;;;;;;;;6271156;22;20011;-77
2023/05/04 08:42:10;;;;;;;13.15;3.45;;;;;;;;;;6270314;22;20004;-78
2023/05/04 08:44:35;;;;;;;9.73;3.50;;;;;;;;;;6270776;22;19999;-77
2023/05/04 08:47:03;;;;;;;12.93;3.78;;;;;;;;;;6270950;22;20550;-77
2023/05/04 08:49:29;;;;;;;13.48;3.78;;;;;;;;;;6271745;22;20011;-78
2023/05/04 08:51:56;;;;;;;15.75;3.88;;;;;;;;;;6243352;22;20451;-78
2023/05/04 08:54:23;;;;;;;12.48;3.50;;;;;;;;;;6244062;22;20008;-78
2023/05/04 08:56:51;;;;;;;10.07;3.20;;;;;;;;;;6271145;22;20003;-77
2023/05/04 08:59:21;;;;;;;13.65;3.58;;;;;;;;;;6271086;22;20071;-78
2023/05/04 09:01:56;;;;;;;12.35;3.10;;;;;;;;;;6271478;22;20038;-79
2023/05/04 09:04:22;;;;;;;12.20;3.33;;;;;;;;;;6271353;22;20006;-78
2023/05/04 09:06:48;;;;;;;11.73;3.28;;;;;;;;;;6270717;22;20007;-77
2023/05/04 09:09:13;;;;;;;13.73;3.70;;;;;;;;;;6271077;22;20447;-78
2023/05/04 09:11:39;;;;;;;13.98;3.63;;;;;;;;;;6271284;22;20000;-77
2023/05/04 09:14:04;;;;;;;15.32;3.70;;;;;;;;;;6271085;22;20004;-78
2023/05/04 09:16:40;;;;;;;14.35;3.30;;;;;;;;;;6270976;22;20332;-78
2023/05/04 09:19:32;;;;;;;11.50;3.22;;;;;;;;;;6243944;22;20014;-78
2023/05/04 09:22:01;;;;;;;9.82;3.13;;;;;;;;;;6243660;22;20007;-77
2023/05/04 09:24:28;;;;;;;13.68;3.50;;;;;;;;;;6271191;22;20019;-78
2023/05/04 09:26:54;;;;;;;12.18;3.40;;;;;;;;;;6243793;22;20868;-77
2023/05/04 09:29:21;;;;;;;13.82;3.60;;;;;;;;;;6243609;22;20034;-77
2023/05/04 09:31:51;;;;;;;11.48;3.30;;;;;;;;;;6270945;22;20018;-77
2023/05/04 09:34:19;;;;;;;11.25;3.15;;;;;;;;;;6270930;22;20012;-77
2023/05/04 09:36:44;;;;;;;11.98;3.38;;;;;;;;;;6270328;22;20006;-79
2023/05/04 09:39:12;;;;;;;10.43;3.42;;;;;;;;;;6271017;22;20079;-77
2023/05/04 09:41:37;;;;;;;11.10;3.50;;;;;;;;;;6271349;22;20033;-78
2023/05/04 09:44:03;;;;;;;16.48;3.90;;;;;;;;;;6270735;22;20082;-78
2023/05/04 09:46:29;;;;;;;12.32;3.25;;;;;;;;;;6271606;22;20158;-78
2023/05/04 09:48:55;;;;;;;13.20;3.45;;;;;;;;;;6270646;22;20103;-78
2023/05/04 09:51:23;;;;;;;13.55;3.60;;;;;;;;;;6270654;22;20068;-77
2023/05/04 09:53:49;;;;;;;13.02;3.42;;;;;;;;;;6243935;22;20327;-77
2023/05/04 09:56:31;;;;;;;12.00;3.63;;;;;;;;;;6270696;22;20067;-77
2023/05/04 09:58:57;;;;;;;10.75;2.95;;;;;;;;;;6270630;22;20000;-77
2023/05/04 10:01:29;;;;;;;11.77;3.20;;;;;;;;;;6270608;22;20376;-77
2023/05/04 10:03:55;;;;;;;10.57;3.03;;;;;;;;;;6270264;22;20008;-78
2023/05/04 10:06:22;;;;;;;12.85;3.33;;;;;;;;;;6270062;22;20085;-78
2023/05/04 10:08:48;;;;;;;14.75;4.00;;;;;;;;;;6270641;22;19999;-78
2023/05/04 10:11:17;;;;;;;11.45;3.15;;;;;;;;;;6270723;22;20529;-78
2023/05/04 10:13:46;;;;;;;10.88;3.22;;;;;;;;;;6243487;22;20111;-78
2023/05/04 10:16:27;;;;;;;13.60;3.33;;;;;;;;;;6270543;22;20014;-78
2023/05/04 10:19:23;;;;;;;15.57;3.50;;;;;;;;;;6270585;22;20000;-78
2023/05/04 10:22:16;;;;;;;13.73;3.22;;;;;;;;;;6270027;22;20339;-78
2023/05/04 10:24:47;;;;;;;9.27;3.10;;;;;;;;;;6270294;22;20003;-78
2023/05/04 10:27:50;;;;;;;13.93;3.20;;;;;;;;;;6243374;22;20034;-79
2023/05/04 10:30:17;;;;;;;8.70;3.15;;;;;;;;;;6270431;22;20026;-78
2023/05/04 10:32:43;;;;;;;13.43;3.22;;;;;;;;;;6270744;22;20000;-79
2023/05/04 10:35:09;;;;;;;8.18;3.10;;;;;;;;;;6270510;22;20133;-77
2023/05/04 10:37:38;;;;;;;11.18;3.38;;;;;;;;;;6269715;22;20015;-78
2023/05/04 10:40:07;;;;;;;11.95;3.25;;;;;;;;;;6242738;22;20474;-78
2023/05/04 10:42:43;;;;;;;8.95;3.28;;;;;;;;;;6270177;22;20563;-78
2023/05/04 10:45:09;;;;;;;11.00;3.20;;;;;;;;;;6270490;22;20084;-79
2023/05/04 10:47:36;;;;;;;9.95;2.90;;;;;;;;;;6270478;22;20735;-78
2023/05/04 10:50:10;;;;;;;7.97;2.85;;;;;;;;;;6270297;22;20038;-79
2023/05/04 10:52:46;;;;;;;9.68;3.40;;;;;;;;;;6270209;22;20420;-78
2023/05/04 10:55:11;;;;;;;13.25;3.55;;;;;;;;;;6270210;22;20008;-78
2023/05/04 10:57:52;;;;;;;15.13;3.78;;;;;;;;;;6270323;22;20007;-78
2023/05/04 11:00:18;;;;;;;10.70;3.58;;;;;;;;;;6269886;22;20011;-79
2023/05/04 11:02:45;;;;;;;13.57;3.80;;;;;;;;;;6270325;22;20003;-79
2023/05/04 11:05:16;;;;;;;12.65;3.47;;;;;;;;;;6270480;22;20007;-78
2023/05/04 11:07:42;;;;;;;11.77;3.35;;;;;;;;;;6269760;22;20007;-78
2023/05/04 11:10:23;;;;;;;15.68;3.67;;;;;;;;;;6243134;22;20008;-78
2023/05/04 11:12:48;;;;;;;12.23;3.50;;;;;;;;;;6270562;22;20006;-78
2023/05/04 11:15:14;;;;;;;9.85;3.00;;;;;;;;;;6270788;22;20004;-78
2023/05/04 11:17:50;;;;;;;9.57;3.38;;;;;;;;;;6272114;22;20538;-78
2023/05/04 11:20:24;;;;;;;13.90;3.35;;;;;;;;;;6245061;22;20015;-78
2023/05/04 11:22:50;;;;;;;9.32;3.05;;;;;;;;;;6272051;22;20007;-78
2023/05/04 11:25:16;;;;;;;10.05;3.22;;;;;;;;;;6272361;22;19999;-78
2023/05/04 11:27:43;;;;;;;15.05;3.50;;;;;;;;;;6272215;22;20000;-78
2023/05/04 11:30:09;;;;;;;10.18;3.20;;;;;;;;;;6245124;22;20008;-78
2023/05/04 11:32:42;;;;;;;11.77;3.55;;;;;;;;;;6271990;22;20011;-78
2023/05/04 11:35:19;;;;;;;11.05;3.38;;;;;;;;;;6272397;22;20385;-77
2023/05/04 11:37:46;;;;;;;9.90;3.10;;;;;;;;;;6272201;22;20065;-78
2023/05/04 11:40:20;;;;;;;13.55;3.08;;;;;;;;;;6272603;22;20340;-78
2023/05/04 11:42:45;;;;;;;9.45;3.13;;;;;;;;;;6272174;22;20000;-78
2023/05/04 11:45:15;;;;;;;11.00;2.97;;;;;;;;;;6272343;22;20007;-78
2023/05/04 11:47:42;;;;;;;15.30;3.35;;;;;;;;;;6272145;22;20015;-78
2023/05/04 11:50:09;;;;;;;8.80;3.20;;;;;;;;;;6244919;22;20003;-78
2023/05/04 11:52:35;;;;;;;11.48;3.47;;;;;;;;;;6271389;22;20004;-78
2023/05/04 11:55:02;;;;;;;8.57;2.90;;;;;;;;;;6245279;22;20014;-78
2023/05/04 11:57:27;;;;;;;11.20;3.22;;;;;;;;;;6244648;22;20381;-79
2023/05/04 11:59:53;;;;;;;10.43;3.15;;;;;;;;;;6272046;22;20039;-79
2023/05/04 12:02:19;;;;;;;10.13;3.58;;;;;;;;;;6271810;22;20004;-78
2023/05/04 12:04:45;;;;;;;14.32;3.20;;;;;;;;;;6271971;22;20101;-78
2023/05/04 12:07:10;;;;;;;11.68;3.10;;;;;;;;;;6270705;22;20000;-78
2023/05/04 12:09:46;;;;;;;13.65;3.75;;;;;;;;;;6271795;22;20026;-78
2023/05/04 12:12:13;;;;;;;9.48;3.22;;;;;;;;;;6271742;22;20000;-79
2023/05/04 12:14:53;;;;;;;8.10;3.10;;;;;;;;;;6244854;22;20018;-79
2023/05/04 12:17:19;;;;;;;10.18;3.22;;;;;;;;;;6271926;22;19996;-78
2023/05/04 12:19:56;;;;;;;8.43;3.10;;;;;;;;;;6271800;22;20031;-78
2023/05/04 12:22:29;;;;;;;9.82;3.08;;;;;;;;;;6243465;22;20003;-78
2023/05/04 12:24:58;;;;;;;9.70;3.30;;;;;;;;;;6271902;22;20344;-78
2023/05/04 12:27:24;;;;;;;10.15;3.10;;;;;;;;;;6271382;22;20004;-78
2023/05/04 12:29:50;;;;;;;10.07;3.30;;;;;;;;;;6271350;22;20317;-78
2023/05/04 12:32:16;;;;;;;9.65;2.95;;;;;;;;;;6271685;22;20010;-78
2023/05/04 12:34:41;;;;;;;8.85;2.85;;;;;;;;;;6271491;22;20380;-78
2023/05/04 12:37:07;;;;;;;10.35;3.40;;;;;;;;;;6270516;22;20012;-79
2023/05/04 12:39:33;;;;;;;9.95;3.17;;;;;;;;;;6271673;22;20079;-78
2023/05/04 12:41:59;;;;;;;11.77;2.97;;;;;;;;;;6271527;22;20039;-78
2023/05/04 12:44:24;;;;;;;10.07;3.22;;;;;;;;;;6271686;22;20026;-78
2023/05/04 12:46:50;;;;;;;8.32;2.88;;;;;;;;;;6243917;22;20027;-78
2023/05/04 12:49:16;;;;;;;10.40;3.05;;;;;;;;;;6244126;22;20130;-79
2023/05/04 12:51:42;;;;;;;8.82;3.20;;;;;;;;;;6270758;22;20124;-78
2023/05/04 12:54:08;;;;;;;11.90;3.35;;;;;;;;;;6271523;22;20424;-78
2023/05/04 12:56:33;;;;;;;12.32;3.30;;;;;;;;;;6244045;22;20012;-78
2023/05/04 12:58:59;;;;;;;10.45;3.15;;;;;;;;;;6271104;22;20011;-78
2023/05/04 13:01:26;;;;;;;10.75;3.10;;;;;;;;;;6243781;22;20007;-78
2023/05/04 13:03:51;;;;;;;7.78;2.80;;;;;;;;;;6271399;22;20000;-79
2023/05/04 13:06:17;;;;;;;7.70;2.90;;;;;;;;;;6271043;22;20458;-78
2023/05/04 13:08:43;;;;;;;7.07;2.92;;;;;;;;;;6270959;22;20003;-79
2023/05/04 13:11:08;;;;;;;7.65;2.67;;;;;;;;;;6271529;22;20096;-79
2023/05/04 13:13:34;;;;;;;11.40;3.20;;;;;;;;;;6271844;22;20004;-78
2023/05/04 13:15:59;;;;;;;10.15;3.17;;;;;;;;;;6271256;22;20004;-78
2023/05/04 13:18:26;;;;;;;9.30;3.13;;;;;;;;;;6270975;22;20007;-78
2023/05/04 13:20:55;;;;;;;8.38;2.90;;;;;;;;;;6270445;22;20015;-79
2023/05/04 13:23:20;;;;;;;9.05;2.65;;;;;;;;;;6271131;22;19999;-79
2023/05/04 13:25:48;;;;;;;9.45;3.20;;;;;;;;;;6271250;22;20004;-79
2023/05/04 13:28:13;;;;;;;8.10;3.10;;;;;;;;;;6271173;22;20004;-78
2023/05/04 13:30:38;;;;;;;7.75;3.10;;;;;;;;;;6271179;22;20437;-79
2023/05/04 13:33:04;;;;;;;9.05;2.90;;;;;;;;;;6243645;22;20011;-78
2023/05/04 13:35:29;;;;;;;7.57;3.08;;;;;;;;;;6271242;22;20071;-79
2023/05/04 13:37:55;;;;;;;8.23;2.90;;;;;;;;;;6271182;22;20018;-77
2023/05/04 13:40:20;;;;;;;8.50;2.70;;;;;;;;;;6270818;22;20082;-78
2023/05/04 13:42:46;;;;;;;9.10;3.05;;;;;;;;;;6271052;22;20072;-77
2023/05/04 13:45:12;;;;;;;9.45;2.90;;;;;;;;;;6271206;22;20378;-78
2023/05/04 13:47:38;;;;;;;8.32;3.22;;;;;;;;;;6271121;22;20018;-78
2023/05/04 13:50:05;;;;;;;11.98;3.42;;;;;;;;;;6270747;22;20066;-78
2023/05/04 13:52:31;;;;;;;9.75;3.05;;;;;;;;;;6270048;22;20473;-77
2023/05/04 13:54:56;;;;;;;7.97;3.13;;;;;;;;;;6270821;22;20496;-78
2023/05/04 13:57:22;;;;;;;11.98;3.20;;;;;;;;;;6270654;22;20000;-77
2023/05/04 13:59:47;;;;;;;8.48;3.03;;;;;;;;;;6270699;22;20014;-77
2023/05/04 14:02:13;;;;;;;7.63;2.95;;;;;;;;;;6270646;22;20127;-77
2023/05/04 14:04:38;;;;;;;9.00;3.10;;;;;;;;;;6270933;22;20003;-77
2023/05/04 14:07:03;;;;;;;8.13;3.10;;;;;;;;;;6270253;22;20089;-77
2023/05/04 14:09:29;;;;;;;12.48;3.20;;;;;;;;;;6270753;22;20004;-77
2023/05/04 14:11:54;;;;;;;10.25;3.03;;;;;;;;;;6270673;22;20033;-77
2023/05/04 14:14:21;;;;;;;9.93;2.97;;;;;;;;;;6270605;22;20027;-78
2023/05/04 14:16:46;;;;;;;7.85;2.85;;;;;;;;;;6270713;22;20000;-77
2023/05/04 14:19:11;;;;;;;8.05;2.92;;;;;;;;;;6270506;22;20006;-77
2023/05/04 14:21:37;;;;;;;6.10;2.83;;;;;;;;;;6270218;22;20007;-77
2023/05/04 14:24:06;;;;;;;12.50;3.30;;;;;;;;;;6270164;22;20034;-77
2023/05/04 14:26:34;;;;;;;10.30;3.17;;;;;;;;;;6243574;22;20548;-78
2023/05/04 14:29:02;;;;;;;10.00;3.20;;;;;;;;;;6270284;22;20397;-78
2023/05/04 14:31:28;;;;;;;11.48;3.20;;;;;;;;;;6270425;22;20444;-78
2023/05/04 14:33:53;;;;;;;9.50;3.50;;;;;;;;;;6270443;22;20010;-78